createdAt,value
2023-03-07T00:01:36.094Z,71.00
2023-03-07T00:04:03.932Z,71.13
2023-03-07T00:06:31.188Z,71.11
2023-03-07T00:09:02.288Z,70.86
2023-03-07T00:11:29.468Z,70.88
2023-03-07T00:13:56.453Z,71.05
2023-03-07T00:16:24.658Z,71.43
2023-03-07T00:18:51.933Z,70.26
2023-03-07T00:21:22.053Z,70.35
2023-03-07T00:23:52.169Z,69.84
2023-03-07T00:26:22.022Z,70.18
2023-03-07T00:28:51.309Z,70.28
2023-03-07T00:31:19.824Z,69.64
2023-03-07T00:33:47.845Z,69.04
2023-03-07T00:36:17.967Z,69.47
2023-03-07T00:38:45.714Z,68.78
2023-03-07T00:41:15.445Z,68.37
2023-03-07T00:43:42.551Z,68.80
2023-03-07T00:46:10.120Z,70.05
2023-03-07T00:48:39.222Z,69.30
2023-03-07T00:51:08.513Z,68.61
2023-03-07T00:53:35.789Z,69.16
2023-03-07T00:56:06.823Z,69.18
2023-03-07T00:58:37.074Z,69.89
2023-03-07T01:01:06.168Z,69.23
2023-03-07T01:03:34.272Z,69.50
2023-03-07T01:06:29.032Z,69.64
2023-03-07T01:08:59.349Z,68.85
2023-03-07T01:11:28.828Z,68.42
2023-03-07T01:13:58.366Z,67.73
2023-03-07T01:16:30.710Z,69.25
2023-03-07T01:19:00.878Z,69.90
2023-03-07T01:21:30.939Z,70.11
2023-03-07T01:24:01.644Z,70.13
2023-03-07T01:26:31.166Z,68.80
2023-03-07T01:29:01.782Z,69.13
2023-03-07T01:31:32.527Z,69.43
2023-03-07T01:34:02.408Z,69.84
2023-03-07T01:36:34.096Z,70.10
2023-03-07T01:39:10.329Z,70.05
2023-03-07T01:41:40.968Z,69.54
2023-03-07T01:44:21.497Z,70.22
2023-03-07T01:46:48.778Z,69.82
2023-03-07T01:49:27.912Z,68.01
2023-03-07T01:52:12.457Z,68.24
2023-03-07T01:54:49.096Z,68.36
2023-03-07T01:57:22.990Z,67.63
2023-03-07T01:59:54.899Z,67.34
2023-03-07T02:02:22.997Z,67.78
2023-03-07T02:05:00.124Z,68.24
2023-03-07T02:07:31.879Z,68.32
2023-03-07T02:10:01.341Z,68.44
2023-03-07T02:12:30.775Z,68.03
2023-03-07T02:14:57.914Z,67.80
2023-03-07T02:17:25.431Z,67.96
2023-03-07T02:20:29.881Z,68.29
2023-03-07T02:22:57.302Z,68.36
2023-03-07T02:25:52.039Z,68.99
2023-03-07T02:28:20.712Z,67.78
2023-03-07T02:30:59.131Z,68.05
2023-03-07T02:33:28.953Z,66.88
2023-03-07T02:36:09.252Z,68.08
2023-03-07T02:38:43.126Z,68.61
2023-03-07T02:41:13.054Z,68.72
2023-03-07T02:43:40.204Z,69.30
2023-03-07T02:46:08.513Z,69.60
2023-03-07T02:48:35.412Z,69.00
2023-03-07T02:51:02.788Z,68.54
2023-03-07T02:53:29.759Z,69.16
2023-03-07T02:55:56.663Z,69.56
2023-03-07T02:58:23.559Z,69.99
2023-03-07T03:00:50.744Z,71.21
2023-03-07T03:03:17.799Z,70.43
2023-03-07T03:05:44.746Z,69.89
2023-03-07T03:08:12.732Z,69.95
2023-03-07T03:10:40.079Z,69.36
2023-03-07T03:13:07.547Z,69.42
2023-03-07T03:15:35.090Z,69.45
2023-03-07T03:18:02.085Z,69.77
2023-03-07T03:20:30.382Z,68.66
2023-03-07T03:22:57.479Z,69.07
2023-03-07T03:25:25.233Z,69.56
2023-03-07T03:27:52.322Z,69.40
2023-03-07T03:30:19.250Z,69.87
2023-03-07T03:32:47.198Z,69.65
2023-03-07T03:35:16.304Z,70.52
2023-03-07T03:37:44.245Z,70.92
2023-03-07T03:40:14.854Z,71.54
2023-03-07T03:42:44.800Z,71.10
2023-03-07T03:45:15.057Z,70.45
2023-03-07T03:47:42.194Z,69.67
2023-03-07T03:50:10.400Z,69.68
2023-03-07T03:52:37.364Z,70.05
2023-03-07T03:55:05.670Z,69.37
2023-03-07T03:57:32.573Z,69.68
2023-03-07T03:59:59.509Z,69.43
2023-03-07T04:02:27.033Z,69.73
2023-03-07T04:04:54.244Z,70.04
2023-03-07T04:07:22.296Z,70.71
2023-03-07T04:09:50.028Z,70.83
2023-03-07T04:12:17.141Z,69.66
2023-03-07T04:15:02.889Z,70.79
2023-03-07T04:17:31.556Z,69.76
2023-03-07T04:19:58.620Z,68.86
2023-03-07T04:22:25.949Z,69.29
2023-03-07T04:24:54.258Z,69.79
2023-03-07T04:27:21.110Z,70.59
2023-03-07T04:29:48.204Z,70.15
2023-03-07T04:32:20.950Z,68.93
2023-03-07T04:34:49.397Z,68.50
2023-03-07T04:37:16.208Z,69.29
2023-03-07T04:39:43.613Z,69.55
2023-03-07T04:42:11.199Z,70.07
2023-03-07T04:44:38.152Z,70.78
2023-03-07T04:47:05.304Z,71.21
2023-03-07T04:49:35.494Z,69.69
2023-03-07T04:52:05.556Z,69.84
2023-03-07T04:54:32.939Z,70.31
2023-03-07T04:57:01.645Z,70.19
2023-03-07T04:59:28.729Z,69.98
2023-03-07T05:01:55.838Z,69.46
2023-03-07T05:04:23.121Z,69.72
2023-03-07T05:06:50.047Z,69.98
2023-03-07T05:09:17.348Z,70.65
2023-03-07T05:11:44.953Z,71.52
2023-03-07T05:14:13.130Z,71.41
2023-03-07T05:16:40.104Z,72.12
2023-03-07T05:19:08.374Z,71.12
2023-03-07T05:21:35.363Z,71.16
2023-03-07T05:24:02.648Z,71.64
2023-03-07T05:26:30.995Z,71.21
2023-03-07T05:28:57.846Z,70.75
2023-03-07T05:31:24.888Z,70.54
2023-03-07T05:33:52.005Z,70.39
2023-03-07T05:36:18.973Z,70.60
2023-03-07T05:38:45.948Z,70.18
2023-03-07T05:41:13.048Z,70.18
2023-03-07T05:43:40.393Z,70.75
2023-03-07T05:46:07.698Z,71.19
2023-03-07T05:48:35.951Z,70.79
2023-03-07T05:51:02.884Z,71.07
2023-03-07T05:53:31.075Z,70.42
2023-03-07T05:55:58.584Z,70.00
2023-03-07T05:58:26.320Z,70.54
2023-03-07T06:00:53.856Z,70.66
2023-03-07T06:03:21.443Z,70.08
2023-03-07T06:05:52.043Z,70.38
2023-03-07T06:08:19.102Z,70.49
2023-03-07T06:10:50.927Z,69.84
2023-03-07T06:13:20.692Z,68.36
2023-03-07T06:15:52.215Z,68.45
2023-03-07T06:18:21.725Z,68.64
2023-03-07T06:21:00.136Z,68.01
2023-03-07T06:23:32.487Z,68.14
2023-03-07T06:26:01.539Z,67.94
2023-03-07T06:28:29.569Z,66.88
2023-03-07T06:30:57.376Z,67.18
2023-03-07T06:33:24.687Z,67.71
2023-03-07T06:35:51.847Z,64.83
2023-03-07T06:38:19.164Z,64.90
2023-03-07T06:40:46.052Z,64.82
2023-03-07T06:43:13.290Z,64.15
2023-03-07T06:45:40.417Z,64.49
2023-03-07T06:48:08.407Z,64.65
2023-03-07T06:50:35.935Z,64.29
2023-03-07T06:53:04.334Z,63.85
2023-03-07T06:55:31.764Z,62.92
2023-03-07T06:57:58.784Z,63.53
2023-03-07T07:00:25.967Z,62.65
2023-03-07T07:02:53.162Z,62.76
2023-03-07T07:05:20.669Z,60.95
2023-03-07T07:07:47.790Z,60.54
2023-03-07T07:10:14.704Z,60.46
2023-03-07T07:12:42.034Z,60.07
2023-03-07T07:15:09.801Z,59.98
2023-03-07T07:17:36.938Z,59.32
2023-03-07T07:20:05.468Z,60.01
2023-03-07T07:22:34.363Z,60.11
2023-03-07T07:25:01.312Z,58.93
2023-03-07T07:27:30.250Z,59.70
2023-03-07T07:29:57.560Z,60.31
2023-03-07T07:32:24.671Z,59.51
2023-03-07T07:34:52.416Z,59.72
2023-03-07T07:37:19.307Z,59.11
2023-03-07T07:39:46.453Z,58.87
2023-03-07T07:42:13.496Z,57.99
2023-03-07T07:44:54.013Z,58.55
2023-03-07T07:47:21.180Z,57.96
2023-03-07T07:49:48.097Z,57.98
2023-03-07T07:52:15.145Z,57.84
2023-03-07T07:54:42.231Z,56.58
2023-03-07T07:57:09.274Z,56.56
2023-03-07T07:59:36.745Z,56.65
2023-03-07T08:02:06.034Z,56.19
2023-03-07T08:04:33.038Z,56.73
2023-03-07T08:07:00.350Z,57.71
2023-03-07T08:09:27.226Z,57.81
2023-03-07T08:11:54.512Z,57.60
2023-03-07T08:14:21.395Z,56.61
2023-03-07T08:16:48.297Z,56.00
2023-03-07T08:19:15.388Z,54.40
2023-03-07T08:21:42.254Z,54.89
2023-03-07T08:24:09.239Z,54.30
2023-03-07T08:26:36.101Z,53.79
2023-03-07T08:29:03.610Z,53.72
2023-03-07T08:31:30.675Z,54.10
2023-03-07T08:33:57.570Z,53.80
2023-03-07T08:36:24.541Z,53.78
2023-03-07T08:38:52.304Z,53.69
2023-03-07T08:41:21.265Z,55.02
2023-03-07T08:43:48.556Z,53.23
2023-03-07T08:46:15.589Z,53.42
2023-03-07T08:48:43.031Z,52.78
2023-03-07T08:51:15.024Z,54.01
2023-03-07T08:53:46.329Z,51.61
2023-03-07T08:56:17.203Z,51.44
2023-03-07T08:58:44.555Z,51.88
2023-03-07T09:01:13.160Z,51.12
2023-03-07T09:03:40.118Z,49.07
2023-03-07T09:06:07.255Z,49.26
2023-03-07T09:08:34.338Z,48.01
2023-03-07T09:11:03.690Z,47.76
2023-03-07T09:13:33.066Z,47.10
2023-03-07T09:16:04.819Z,47.99
2023-03-07T09:18:32.071Z,47.76
2023-03-07T09:21:00.313Z,47.77
2023-03-07T09:23:27.696Z,47.72
2023-03-07T09:25:54.741Z,49.09
2023-03-07T09:28:21.528Z,49.96
2023-03-07T09:30:48.450Z,49.64
2023-03-07T09:33:15.336Z,49.43
2023-03-07T09:35:42.279Z,48.97
2023-03-07T09:38:10.453Z,50.05
2023-03-07T09:40:38.076Z,48.69
2023-03-07T09:43:19.417Z,48.02
2023-03-07T09:46:21.496Z,47.79
2023-03-07T09:49:00.647Z,48.46
2023-03-07T09:51:40.938Z,48.63
2023-03-07T09:54:13.992Z,49.69
2023-03-07T09:56:54.817Z,47.69
2023-03-07T09:59:42.213Z,49.26
2023-03-07T10:02:41.015Z,48.06
2023-03-07T10:05:23.578Z,47.35
2023-03-07T10:07:51.689Z,45.61
2023-03-07T10:10:27.159Z,46.87
2023-03-07T10:13:12.803Z,45.78
2023-03-07T10:15:48.824Z,46.56
2023-03-07T10:18:40.705Z,47.65
2023-03-07T10:21:21.782Z,46.35
2023-03-07T10:24:08.104Z,46.92
2023-03-07T10:26:47.763Z,45.88
2023-03-07T10:29:18.702Z,43.35
2023-03-07T10:31:55.149Z,45.82
2023-03-07T10:34:30.164Z,44.54
2023-03-07T10:37:09.022Z,43.71
2023-03-07T10:39:44.772Z,42.85
2023-03-07T10:42:14.896Z,42.56
2023-03-07T10:44:42.377Z,42.84
2023-03-07T10:47:19.414Z,44.12
2023-03-07T10:49:48.490Z,41.97
2023-03-07T10:52:15.775Z,41.67
2023-03-07T10:54:42.703Z,41.65
2023-03-07T10:57:09.950Z,42.51
2023-03-07T10:59:45.783Z,40.24
2023-03-07T11:02:21.709Z,41.80
2023-03-07T11:04:48.751Z,42.33
2023-03-07T11:07:29.690Z,42.26
2023-03-07T11:09:58.841Z,41.62
2023-03-07T11:12:29.145Z,40.82
2023-03-07T11:15:08.905Z,40.12
2023-03-07T11:17:45.034Z,40.34
2023-03-07T11:20:25.682Z,39.64
2023-03-07T11:23:17.340Z,39.13
2023-03-07T11:25:44.785Z,38.70
2023-03-07T11:28:33.728Z,37.33
2023-03-07T11:31:30.343Z,37.26
2023-03-07T11:34:08.871Z,38.60
2023-03-07T11:36:36.912Z,36.98
2023-03-07T11:39:30.878Z,38.18
2023-03-07T11:42:04.490Z,39.19
2023-03-07T11:44:51.510Z,40.21
2023-03-07T11:47:44.556Z,38.41
2023-03-07T11:50:25.760Z,38.27
2023-03-07T11:53:17.572Z,40.05
2023-03-07T11:56:05.953Z,39.85
2023-03-07T11:58:51.634Z,38.60
2023-03-07T12:01:35.682Z,37.08
2023-03-07T12:04:24.264Z,36.89
2023-03-07T12:07:00.164Z,37.09
2023-03-07T12:09:35.999Z,38.38
2023-03-07T12:12:28.982Z,36.60
2023-03-07T12:15:33.548Z,39.20
2023-03-07T12:18:21.948Z,37.55
2023-03-07T12:21:03.827Z,36.77
2023-03-07T12:23:36.306Z,36.79
2023-03-07T12:26:15.289Z,36.77
2023-03-07T12:28:52.587Z,35.52
2023-03-07T12:31:48.113Z,37.91
2023-03-07T12:35:05.161Z,38.35
2023-03-07T12:37:45.985Z,36.90
2023-03-07T12:40:21.040Z,38.21
2023-03-07T12:43:07.777Z,37.36
2023-03-07T12:45:51.284Z,36.44
2023-03-07T12:48:26.327Z,37.76
2023-03-07T12:51:07.002Z,35.27
2023-03-07T12:53:53.680Z,36.01
2023-03-07T12:56:34.248Z,36.92
2023-03-07T12:59:12.810Z,35.84
2023-03-07T13:01:52.069Z,35.19
2023-03-07T13:04:43.294Z,33.26
2023-03-07T13:07:18.372Z,34.55
2023-03-07T13:09:47.520Z,34.84
2023-03-07T13:12:20.259Z,33.63
2023-03-07T13:15:27.861Z,35.12
2023-03-07T13:17:57.147Z,34.56
2023-03-07T13:20:38.364Z,34.47
2023-03-07T13:23:34.131Z,33.71
2023-03-07T13:26:05.077Z,35.60
2023-03-07T13:28:42.551Z,35.40
2023-03-07T13:31:15.860Z,34.62
2023-03-07T13:33:43.812Z,36.21
2023-03-07T13:36:38.721Z,32.83
2023-03-07T13:39:38.452Z,34.26
2023-03-07T13:42:25.520Z,33.28
2023-03-07T13:44:52.597Z,33.06
2023-03-07T13:47:44.246Z,34.19
2023-03-07T13:50:36.244Z,33.56
2023-03-07T13:53:18.821Z,35.28
2023-03-07T13:56:19.984Z,32.98
2023-03-07T13:58:59.219Z,35.78
2023-03-07T14:01:59.349Z,36.47
2023-03-07T14:04:54.223Z,35.12
2023-03-07T14:07:24.705Z,34.49
2023-03-07T14:10:23.339Z,34.60
2023-03-07T14:13:05.771Z,35.21
2023-03-07T14:15:55.923Z,36.79
2023-03-07T14:18:54.541Z,37.17
2023-03-07T14:21:41.352Z,35.39
2023-03-07T14:24:31.348Z,34.51
2023-03-07T14:27:03.674Z,32.67
2023-03-07T14:29:31.130Z,34.10
2023-03-07T14:32:00.659Z,34.91
2023-03-07T14:34:32.154Z,34.88
2023-03-07T14:37:07.652Z,34.20
2023-03-07T14:39:49.821Z,34.41
2023-03-07T14:42:50.904Z,36.50
2023-03-07T14:45:23.609Z,35.68
2023-03-07T14:48:17.067Z,35.80
2023-03-07T14:50:44.841Z,35.29
2023-03-07T14:53:25.773Z,36.73
2023-03-07T14:55:55.128Z,37.95
2023-03-07T14:59:10.840Z,37.70
2023-03-07T15:01:42.849Z,36.68
2023-03-07T15:04:29.667Z,37.71
2023-03-07T15:07:00.109Z,37.77
2023-03-07T15:09:28.670Z,36.05
2023-03-07T15:12:12.783Z,37.33
2023-03-07T15:14:56.312Z,38.13
2023-03-07T15:17:32.894Z,36.97
2023-03-07T15:20:07.712Z,38.50
2023-03-07T15:22:39.689Z,39.33
2023-03-07T15:25:18.647Z,37.19
2023-03-07T15:27:45.869Z,38.36
2023-03-07T15:30:25.411Z,38.79
2023-03-07T15:33:10.738Z,39.59
2023-03-07T15:35:38.133Z,38.36
2023-03-07T15:38:26.054Z,40.91
2023-03-07T15:40:53.303Z,38.58
2023-03-07T15:43:23.581Z,41.29
2023-03-07T15:46:17.382Z,40.38
2023-03-07T15:48:50.348Z,40.58
2023-03-07T15:51:20.293Z,39.59
2023-03-07T15:54:18.448Z,41.82
2023-03-07T15:56:46.349Z,39.17
2023-03-07T15:59:23.835Z,41.05
2023-03-07T16:01:50.900Z,39.89
2023-03-07T16:04:37.988Z,40.91
2023-03-07T16:07:07.737Z,42.86
2023-03-07T16:09:34.959Z,41.86
2023-03-07T16:12:02.022Z,42.21
2023-03-07T16:14:31.816Z,43.02
2023-03-07T16:17:02.416Z,43.07
2023-03-07T16:19:29.890Z,42.75
2023-03-07T16:21:57.025Z,43.46
2023-03-07T16:24:23.960Z,42.57
2023-03-07T16:26:51.150Z,43.42
2023-03-07T16:29:22.912Z,43.96
2023-03-07T16:31:49.981Z,42.39
2023-03-07T16:34:21.894Z,43.14
2023-03-07T16:36:48.792Z,43.80
2023-03-07T16:39:18.040Z,43.27
2023-03-07T16:41:46.909Z,45.41
2023-03-07T16:44:21.569Z,44.51
2023-03-07T16:46:57.537Z,45.54
2023-03-07T16:49:24.492Z,45.70
2023-03-07T16:52:04.773Z,44.64
2023-03-07T16:54:32.641Z,45.88
2023-03-07T16:57:01.788Z,44.04
2023-03-07T16:59:36.569Z,44.84
2023-03-07T17:02:16.132Z,45.70
2023-03-07T17:04:44.410Z,45.84
2023-03-07T17:07:19.752Z,46.02
2023-03-07T17:09:46.842Z,45.71
2023-03-07T17:12:14.478Z,45.46
2023-03-07T17:14:42.693Z,46.80
2023-03-07T17:17:21.155Z,46.91
2023-03-07T17:19:48.182Z,45.72
2023-03-07T17:22:15.161Z,46.01
2023-03-07T17:24:42.274Z,46.79
2023-03-07T17:27:09.626Z,47.06
2023-03-07T17:29:43.768Z,47.39
2023-03-07T17:32:11.153Z,47.18
2023-03-07T17:34:38.563Z,46.45
2023-03-07T17:37:06.171Z,45.94
2023-03-07T17:39:34.436Z,46.87
2023-03-07T17:42:02.112Z,44.88
2023-03-07T17:44:29.969Z,45.42
2023-03-07T17:46:58.452Z,46.44
2023-03-07T17:49:28.834Z,46.61
2023-03-07T17:51:55.785Z,46.75
2023-03-07T17:54:22.650Z,48.21
2023-03-07T17:56:50.297Z,47.01
2023-03-07T17:59:17.388Z,47.50
2023-03-07T18:01:44.540Z,47.79
2023-03-07T18:04:14.847Z,46.84
2023-03-07T18:06:41.959Z,47.73
2023-03-07T18:09:09.311Z,47.21
2023-03-07T18:11:36.723Z,47.65
2023-03-07T18:14:03.816Z,47.28
2023-03-07T18:16:31.006Z,47.35
2023-03-07T18:19:00.218Z,48.29
2023-03-07T18:21:29.918Z,48.06
2023-03-07T18:23:57.758Z,47.57
2023-03-07T18:26:24.829Z,46.00
2023-03-07T18:28:53.859Z,47.34
2023-03-07T18:31:25.076Z,45.99
2023-03-07T18:33:53.301Z,46.84
2023-03-07T18:36:24.569Z,47.42
2023-03-07T18:38:52.459Z,47.39
2023-03-07T18:41:24.571Z,47.45
2023-03-07T18:43:53.418Z,46.64
2023-03-07T18:46:21.726Z,46.66
2023-03-07T18:48:49.300Z,46.23
2023-03-07T18:51:19.580Z,47.36
2023-03-07T18:53:46.864Z,48.09
2023-03-07T18:56:15.999Z,48.04
2023-03-07T18:58:43.777Z,47.25
2023-03-07T19:01:13.671Z,47.53
2023-03-07T19:03:41.325Z,47.58
2023-03-07T19:06:09.712Z,48.15
2023-03-07T19:08:36.960Z,47.60
2023-03-07T19:11:05.580Z,48.44
2023-03-07T19:13:33.426Z,47.13
2023-03-07T19:16:06.355Z,48.94
2023-03-07T19:18:34.002Z,50.19
2023-03-07T19:21:09.121Z,49.33
2023-03-07T19:23:36.443Z,49.68
2023-03-07T19:26:05.955Z,49.80
2023-03-07T19:28:33.262Z,49.02
2023-03-07T19:31:15.171Z,50.61
2023-03-07T19:33:42.875Z,51.05
2023-03-07T19:36:12.578Z,51.43
2023-03-07T19:38:40.015Z,50.53
2023-03-07T19:41:11.607Z,50.38
2023-03-07T19:43:38.896Z,51.47
2023-03-07T19:46:08.863Z,50.59
2023-03-07T19:48:36.266Z,51.97
2023-03-07T19:51:04.274Z,50.85
2023-03-07T19:53:31.436Z,52.55
2023-03-07T19:56:08.884Z,52.41
2023-03-07T19:58:37.312Z,52.24
2023-03-07T20:01:09.445Z,52.76
2023-03-07T20:03:37.112Z,52.69
2023-03-07T20:06:05.176Z,53.16
2023-03-07T20:08:33.645Z,53.46
2023-03-07T20:11:11.866Z,53.71
2023-03-07T20:13:40.173Z,53.75
2023-03-07T20:16:10.301Z,52.65
2023-03-07T20:18:38.450Z,53.40
2023-03-07T20:21:10.722Z,52.71
2023-03-07T20:23:39.811Z,54.31
2023-03-07T20:26:09.723Z,54.95
2023-03-07T20:28:37.364Z,55.46
2023-03-07T20:31:08.837Z,55.09
2023-03-07T20:33:40.353Z,54.76
2023-03-07T20:36:13.128Z,55.43
2023-03-07T20:38:40.172Z,55.86
2023-03-07T20:41:10.462Z,56.14
2023-03-07T20:43:38.540Z,56.16
2023-03-07T20:46:08.112Z,55.90
2023-03-07T20:48:35.680Z,56.59
2023-03-07T20:51:06.758Z,55.88
2023-03-07T20:53:34.091Z,56.03
2023-03-07T20:56:05.209Z,55.84
2023-03-07T20:58:32.938Z,56.10
2023-03-07T21:01:00.845Z,56.21
2023-03-07T21:03:28.539Z,56.91
2023-03-07T21:06:00.533Z,58.43
2023-03-07T21:08:30.496Z,59.21
2023-03-07T21:10:59.029Z,57.92
2023-03-07T21:13:27.246Z,57.69
2023-03-07T21:15:56.164Z,58.82
2023-03-07T21:18:23.956Z,59.84
2023-03-07T21:20:52.082Z,61.10
2023-03-07T21:23:19.426Z,61.14
2023-03-07T21:25:47.255Z,58.58
2023-03-07T21:28:14.184Z,59.33
2023-03-07T21:30:41.279Z,59.49
2023-03-07T21:33:08.217Z,60.92
2023-03-07T21:35:39.291Z,61.79
2023-03-07T21:38:06.381Z,61.79
2023-03-07T21:40:33.704Z,61.60
2023-03-07T21:43:00.820Z,62.77
2023-03-07T21:45:27.743Z,61.30
2023-03-07T21:47:54.789Z,61.16
2023-03-07T21:50:21.717Z,62.05
2023-03-07T21:52:48.911Z,62.74
2023-03-07T21:55:16.595Z,63.19
2023-03-07T21:57:43.807Z,62.93
2023-03-07T22:00:15.902Z,63.79
2023-03-07T22:02:46.274Z,62.78
2023-03-07T22:05:13.391Z,62.71
2023-03-07T22:07:40.280Z,64.08
2023-03-07T22:10:08.245Z,63.73
2023-03-07T22:12:35.096Z,63.02
2023-03-07T22:15:01.950Z,62.95
2023-03-07T22:17:30.796Z,62.95
2023-03-07T22:19:57.756Z,63.10
2023-03-07T22:22:24.754Z,63.97
2023-03-07T22:24:52.344Z,64.16
2023-03-07T22:27:19.935Z,63.81
2023-03-07T22:29:47.186Z,65.61
2023-03-07T22:32:14.185Z,65.80
2023-03-07T22:34:41.178Z,65.82
2023-03-07T22:37:08.134Z,65.40
2023-03-07T22:39:35.158Z,66.35
2023-03-07T22:42:02.035Z,65.74
2023-03-07T22:44:29.034Z,65.44
2023-03-07T22:46:57.170Z,66.09
2023-03-07T22:49:24.069Z,66.25
2023-03-07T22:51:50.975Z,66.82
2023-03-07T22:54:17.802Z,66.96
2023-03-07T22:56:44.767Z,67.66
2023-03-07T22:59:11.968Z,67.96
2023-03-07T23:01:38.852Z,68.98
2023-03-07T23:04:08.656Z,69.68
2023-03-07T23:06:36.959Z,68.17
2023-03-07T23:09:05.857Z,67.25
2023-03-07T23:11:33.653Z,68.01
2023-03-07T23:14:00.897Z,68.03
2023-03-07T23:16:29.978Z,67.69
2023-03-07T23:18:58.094Z,68.21
2023-03-07T23:21:29.191Z,67.87
2023-03-07T23:23:56.436Z,68.20
2023-03-07T23:26:26.302Z,69.14
2023-03-07T23:28:54.361Z,69.27
2023-03-07T23:31:31.114Z,70.14
2023-03-07T23:34:00.550Z,70.84
2023-03-07T23:36:29.747Z,70.83
2023-03-07T23:38:57.274Z,70.38
2023-03-07T23:41:24.969Z,71.00
2023-03-07T23:43:53.655Z,71.84
2023-03-07T23:46:21.397Z,71.76
2023-03-07T23:48:48.516Z,71.60
2023-03-07T23:51:16.629Z,70.31
2023-03-07T23:53:43.755Z,70.71
2023-03-07T23:56:11.861Z,70.60
2023-03-07T23:58:39.248Z,71.06
